EKVD

Details ICAO EKVD
Name Kolding Vamdrup
Region Denmark / Faroe Islands
Timezone Europe/Copenhagen (UTC+1.0)
Plans Departing 2
Arriving 3
Stats Elevation 143 ft / 44 m (AMSL)
Location 55.435795° 9.330646°
Runways 2
Magnetic Variation 2.584° E
Sunrise 2017-12-16 07:46:33 UTC / 2017-12-16 08:46:33 Local
Sunset 2017-12-16 14:52:49 UTC / 2017-12-16 15:52:49 Local
Advertisement - Login to hide

Runways

ID Width Length Bearing (true) Bearing (mag) Surface Threshold Offset Overrun Length
01 75 ft / 23 m 3,199 ft / 975 m 17.55° 14.97° Asphalt 0 ft / 0 m 0 ft / 0 m
08 75 ft / 23 m 2,303 ft / 702 m 76.77° 74.19° Grass 0 ft / 0 m 0 ft / 0 m
19 75 ft / 23 m 3,199 ft / 975 m 197.55° 194.97° Asphalt 0 ft / 0 m 0 ft / 0 m
26 75 ft / 23 m 2,303 ft / 702 m 256.77° 254.19° Grass 0 ft / 0 m 0 ft / 0 m

Map

Weather


0- 5 10 15 20 25 30 35+ Temperature / ° C

Clouds and Precipitation
Forecast for 2017-12-16 12:00 UTC. Updated 2 hours ago

Ground ~20,000 ft ~40,000 ft Winds

METAR

EKVD 161250Z AUTO 27007KT //// ///////// 03/01 Q1003

TAF

Not found

Frequencies

Tower 120.50 MHz VAMDRUP AFIS
Approach 127.47 MHz SKRYDSTRUP APP
Warning: Do not use this data for real-world aviation or navigation. No guarantee of current accuracy is given.